Airfield :
LOGIN :

Register | Disclaimer

   EN    FR    IT 

 










Legend :    VFR   Marginal VFR   IFR   Intensive IFR   Very Intensive IFR
Visi :
Ceiling :
>= 8 km
>= 3000ft
5 to 8 km
1000 to 3000 ft
1500m to 5 km
500 to 1000 ft
800 to 1500m
200 to 500 ft
< 800m
< 200 ft
Symbols :   Thunderstorms  Fog  Heavy snow  Heavy precipitations  Wind > 20 kt
SIGMETs :     Misc.  Thunderstorms  Icing  Turbulence  Mountain Waves  Volcanic Ashes







- Airport Elevation : 1017 ft
- Download approach charts


LFSL - Brive Souillac

CURRENT METAR :
  • 251400Z AUTO 17009KT 140V200 9999 -TSRA FEW031/// SCT052/// BKN062/// ///CB 11/06 Q1007 TEMPO 25015G25KT 4000 SHRA BKN014 BKN030CB

EXPIRED METARs :
  • 251330Z AUTO 23006KT 180V290 9999 FEW035/// SCT047/// BKN110/// ///CB 15/08 Q1006 TEMPO 25015G25KT 4000 SHRA BKN014 BKN030CB
  • 251300Z AUTO 16004KT 110V250 9999 BKN034 BKN043 BKN062 16/09 Q1006 TEMPO 25015G25KT 4000 SHRA BKN014 BKN030CB
  • 251230Z AUTO 21006KT 170V250 9999 FEW028/// BKN056/// BKN072/// ///CB 14/09 Q1006 TEMPO 25015G25KT 4000 SHRA BKN014 BKN030CB
  • 251200Z AUTO 18005KT 110V260 9999 FEW024 BKN032 BKN040 14/09 Q1006 TEMPO 25015G25KT 4000 SHRA BKN014 BKN030CB
  • 251130Z AUTO 17007KT 120V210 9999 FEW025 SCT040 BKN050 13/09 Q1007 TEMPO 25015G25KT 4000 SHRA BKN014 BKN030CB

TAF TAF LFSL
Valid from the 25 at 12:00 until the 25 at 21:00 UTC


251100Z 2512/2521 18008KT 9999 SCT020TCU
TEMPO 2513/2517 25015G25KT 4000 SHRA BKN014 BKN030CB
PROB30
TEMPO 2514/2516 -TSRA
No reported NOTAMs for that airfield.
3 SIGMETs reported for the Bordeaux FIR (LFBB) :
 
Embedded thunderstorms
LFBB SIGMET 12 VALID 251350/251600 LFPW
LFBB BORDEAUX FIR/UIR EMBD TS OBS AT 1350Z WI N4215 E00200 - N4230 E00030 - N4715 E00000 - N4715 E00145 - N4215 E00200 TOP FL290 MOV NE 25KT NC=
Severe turbulence
LFBB SIGMET 11 VALID 251330/251730 LFPW
LFBB BORDEAUX FIR/UIR SEV TURB FCST WI N4245 E00230 - N4215 E00230 - N4245 W00015 - N4300 W00015 - N4245 E00230 SFC/FL120 STNR WKN=
Severe turbulence
LFBB SIGMET 10 VALID 251200/251400 LFPW
LFBB BORDEAUX FIR/UIR SEV TURB OBS AT 1200Z WI N4230 E00115 - N4300 W00130 - N4530 E00130 - N4415 E00245 - N4230 E00115 FL300/410 MOV E 10KT NC=



MET'MAP, your aeronautical weather chart ! - Copyright ORBIFLY December 2007 - Disclaimer

ORBIFLY MET'MAP TEAM :

Programming & Development : Alexandra Zaïnal
Concept & Development : Baudouin d'Aumeries
Co-Development & Prog : Marc-Olivier Méhu
Technical & hardware support : Manuel Goepfert

Contact : metmap@orbifly.com




SOURCES & CREDITS :

   NOAA